sensor_id;sensor_type;location;lat;lon;timestamp;P1;durP1;ratioP1;P2;durP2;ratioP2
68987;SDS011;56038;46.080;11.116;2023-08-24T00:02:35;10.48;;;7.28;;
68987;SDS011;56038;46.080;11.116;2023-08-24T00:07:38;11.50;;;7.88;;
68987;SDS011;56038;46.080;11.116;2023-08-24T00:12:40;8.53;;;7.03;;
68987;SDS011;56038;46.080;11.116;2023-08-24T00:17:42;7.00;;;6.30;;
68987;SDS011;56038;46.080;11.116;2023-08-24T00:22:45;8.70;;;7.50;;
68987;SDS011;56038;46.080;11.116;2023-08-24T00:27:47;8.18;;;7.38;;
68987;SDS011;56038;46.080;11.116;2023-08-24T00:32:49;9.30;;;7.82;;
68987;SDS011;56038;46.080;11.116;2023-08-24T00:37:52;9.02;;;7.68;;
68987;SDS011;56038;46.080;11.116;2023-08-24T00:42:54;8.83;;;6.57;;
68987;SDS011;56038;46.080;11.116;2023-08-24T00:47:56;8.68;;;7.03;;
68987;SDS011;56038;46.080;11.116;2023-08-24T00:52:59;10.02;;;6.82;;
68987;SDS011;56038;46.080;11.116;2023-08-24T00:58:01;8.57;;;7.17;;
68987;SDS011;56038;46.080;11.116;2023-08-24T01:03:04;9.75;;;8.20;;
68987;SDS011;56038;46.080;11.116;2023-08-24T01:08:07;8.82;;;7.35;;
68987;SDS011;56038;46.080;11.116;2023-08-24T01:13:09;9.33;;;8.30;;
68987;SDS011;56038;46.080;11.116;2023-08-24T01:18:14;11.32;;;8.23;;
68987;SDS011;56038;46.080;11.116;2023-08-24T01:23:27;9.70;;;7.85;;
68987;SDS011;56038;46.080;11.116;2023-08-24T01:28:39;8.48;;;7.47;;
68987;SDS011;56038;46.080;11.116;2023-08-24T01:33:43;7.60;;;6.78;;
68987;SDS011;56038;46.080;11.116;2023-08-24T01:38:45;10.07;;;7.70;;
68987;SDS011;56038;46.080;11.116;2023-08-24T01:43:56;11.05;;;8.70;;
68987;SDS011;56038;46.080;11.116;2023-08-24T01:49:00;8.68;;;7.72;;
68987;SDS011;56038;46.080;11.116;2023-08-24T01:54:02;8.70;;;7.90;;
68987;SDS011;56038;46.080;11.116;2023-08-24T01:59:06;8.68;;;7.47;;
68987;SDS011;56038;46.080;11.116;2023-08-24T02:04:08;9.05;;;8.18;;
68987;SDS011;56038;46.080;11.116;2023-08-24T02:09:10;10.70;;;8.18;;
68987;SDS011;56038;46.080;11.116;2023-08-24T02:14:13;12.93;;;7.88;;
68987;SDS011;56038;46.080;11.116;2023-08-24T02:19:14;9.50;;;7.63;;
68987;SDS011;56038;46.080;11.116;2023-08-24T02:24:16;9.32;;;8.05;;
68987;SDS011;56038;46.080;11.116;2023-08-24T02:29:19;10.13;;;8.23;;
68987;SDS011;56038;46.080;11.116;2023-08-24T02:34:21;9.82;;;7.40;;
68987;SDS011;56038;46.080;11.116;2023-08-24T02:39:22;10.23;;;8.15;;
68987;SDS011;56038;46.080;11.116;2023-08-24T02:44:27;12.10;;;8.88;;
68987;SDS011;56038;46.080;11.116;2023-08-24T02:49:29;10.95;;;8.10;;
68987;SDS011;56038;46.080;11.116;2023-08-24T02:54:30;9.80;;;8.75;;
68987;SDS011;56038;46.080;11.116;2023-08-24T02:59:33;10.95;;;7.78;;
68987;SDS011;56038;46.080;11.116;2023-08-24T03:04:35;9.80;;;8.73;;
68987;SDS011;56038;46.080;11.116;2023-08-24T03:09:37;9.77;;;8.50;;
68987;SDS011;56038;46.080;11.116;2023-08-24T03:14:40;10.02;;;7.93;;
68987;SDS011;56038;46.080;11.116;2023-08-24T03:19:42;9.77;;;8.27;;
68987;SDS011;56038;46.080;11.116;2023-08-24T03:24:43;10.95;;;8.55;;
68987;SDS011;56038;46.080;11.116;2023-08-24T03:29:46;14.43;;;8.93;;
68987;SDS011;56038;46.080;11.116;2023-08-24T03:34:48;10.30;;;8.73;;
68987;SDS011;56038;46.080;11.116;2023-08-24T03:39:50;9.50;;;8.40;;
68987;SDS011;56038;46.080;11.116;2023-08-24T03:44:53;9.45;;;8.00;;
68987;SDS011;56038;46.080;11.116;2023-08-24T03:49:55;9.30;;;8.35;;
68987;SDS011;56038;46.080;11.116;2023-08-24T03:54:56;10.20;;;8.45;;
68987;SDS011;56038;46.080;11.116;2023-08-24T03:59:59;10.57;;;8.65;;
68987;SDS011;56038;46.080;11.116;2023-08-24T04:05:01;10.80;;;9.70;;
68987;SDS011;56038;46.080;11.116;2023-08-24T04:10:04;10.63;;;8.07;;
68987;SDS011;56038;46.080;11.116;2023-08-24T04:15:09;11.43;;;9.25;;
68987;SDS011;56038;46.080;11.116;2023-08-24T04:20:11;11.70;;;8.63;;
68987;SDS011;56038;46.080;11.116;2023-08-24T04:25:13;10.25;;;8.95;;
68987;SDS011;56038;46.080;11.116;2023-08-24T04:30:16;10.85;;;8.27;;
68987;SDS011;56038;46.080;11.116;2023-08-24T04:35:18;9.10;;;7.70;;
68987;SDS011;56038;46.080;11.116;2023-08-24T04:40:20;12.43;;;8.25;;
68987;SDS011;56038;46.080;11.116;2023-08-24T04:45:23;11.65;;;8.57;;
68987;SDS011;56038;46.080;11.116;2023-08-24T04:50:25;9.97;;;8.23;;
68987;SDS011;56038;46.080;11.116;2023-08-24T04:55:27;10.52;;;8.82;;
68987;SDS011;56038;46.080;11.116;2023-08-24T05:00:30;9.75;;;8.82;;
68987;SDS011;56038;46.080;11.116;2023-08-24T05:05:33;12.60;;;8.75;;
68987;SDS011;56038;46.080;11.116;2023-08-24T05:10:36;11.13;;;8.18;;
68987;SDS011;56038;46.080;11.116;2023-08-24T05:15:39;10.75;;;9.68;;
68987;SDS011;56038;46.080;11.116;2023-08-24T05:20:41;11.65;;;9.27;;
68987;SDS011;56038;46.080;11.116;2023-08-24T05:25:43;12.00;;;9.65;;
68987;SDS011;56038;46.080;11.116;2023-08-24T05:30:46;12.95;;;9.82;;
68987;SDS011;56038;46.080;11.116;2023-08-24T05:35:47;11.00;;;9.90;;
68987;SDS011;56038;46.080;11.116;2023-08-24T05:40:49;11.52;;;8.93;;
68987;SDS011;56038;46.080;11.116;2023-08-24T05:45:52;11.13;;;8.27;;
68987;SDS011;56038;46.080;11.116;2023-08-24T05:50:54;9.05;;;7.65;;
68987;SDS011;56038;46.080;11.116;2023-08-24T05:55:59;11.48;;;7.90;;
68987;SDS011;56038;46.080;11.116;2023-08-24T06:01:02;10.88;;;8.43;;
68987;SDS011;56038;46.080;11.116;2023-08-24T06:06:04;11.27;;;9.13;;
68987;SDS011;56038;46.080;11.116;2023-08-24T06:11:06;10.77;;;9.02;;
68987;SDS011;56038;46.080;11.116;2023-08-24T06:16:09;11.77;;;9.05;;
68987;SDS011;56038;46.080;11.116;2023-08-24T06:21:11;15.13;;;9.02;;
68987;SDS011;56038;46.080;11.116;2023-08-24T06:26:13;9.95;;;7.90;;
68987;SDS011;56038;46.080;11.116;2023-08-24T06:31:16;8.80;;;7.82;;
68987;SDS011;56038;46.080;11.116;2023-08-24T06:36:17;10.23;;;7.82;;
68987;SDS011;56038;46.080;11.116;2023-08-24T06:41:19;10.50;;;7.93;;
68987;SDS011;56038;46.080;11.116;2023-08-24T06:46:22;10.13;;;7.60;;
68987;SDS011;56038;46.080;11.116;2023-08-24T06:51:24;11.65;;;8.95;;
68987;SDS011;56038;46.080;11.116;2023-08-24T06:56:26;10.40;;;7.60;;
68987;SDS011;56038;46.080;11.116;2023-08-24T07:01:29;12.00;;;8.82;;
68987;SDS011;56038;46.080;11.116;2023-08-24T07:06:32;10.70;;;8.73;;
68987;SDS011;56038;46.080;11.116;2023-08-24T07:11:34;10.95;;;8.15;;
68987;SDS011;56038;46.080;11.116;2023-08-24T07:16:37;8.60;;;6.97;;
68987;SDS011;56038;46.080;11.116;2023-08-24T07:21:39;10.48;;;6.90;;
68987;SDS011;56038;46.080;11.116;2023-08-24T07:26:41;11.57;;;7.63;;
68987;SDS011;56038;46.080;11.116;2023-08-24T07:31:44;9.07;;;7.57;;
68987;SDS011;56038;46.080;11.116;2023-08-24T07:36:46;8.97;;;7.03;;
68987;SDS011;56038;46.080;11.116;2023-08-24T07:41:48;9.18;;;7.38;;
68987;SDS011;56038;46.080;11.116;2023-08-24T07:46:51;11.00;;;8.02;;
68987;SDS011;56038;46.080;11.116;2023-08-24T07:51:53;8.40;;;6.67;;
68987;SDS011;56038;46.080;11.116;2023-08-24T07:56:58;8.98;;;7.03;;
68987;SDS011;56038;46.080;11.116;2023-08-24T08:02:03;11.20;;;7.63;;
68987;SDS011;56038;46.080;11.116;2023-08-24T08:07:06;8.48;;;7.15;;
68987;SDS011;56038;46.080;11.116;2023-08-24T08:12:08;7.05;;;6.18;;
68987;SDS011;56038;46.080;11.116;2023-08-24T08:17:12;8.75;;;6.90;;
68987;SDS011;56038;46.080;11.116;2023-08-24T08:22:13;10.33;;;6.40;;
68987;SDS011;56038;46.080;11.116;2023-08-24T08:27:15;8.80;;;7.18;;
68987;SDS011;56038;46.080;11.116;2023-08-24T08:32:18;8.38;;;6.80;;
68987;SDS011;56038;46.080;11.116;2023-08-24T08:37:21;9.20;;;6.88;;
68987;SDS011;56038;46.080;11.116;2023-08-24T08:42:22;10.38;;;7.15;;
68987;SDS011;56038;46.080;11.116;2023-08-24T08:47:26;9.63;;;6.90;;
68987;SDS011;56038;46.080;11.116;2023-08-24T08:52:28;12.63;;;7.15;;
68987;SDS011;56038;46.080;11.116;2023-08-24T08:57:29;10.23;;;6.65;;
68987;SDS011;56038;46.080;11.116;2023-08-24T09:02:33;8.48;;;6.32;;
68987;SDS011;56038;46.080;11.116;2023-08-24T09:12:39;10.43;;;6.78;;
68987;SDS011;56038;46.080;11.116;2023-08-24T09:17:45;8.87;;;6.70;;
68987;SDS011;56038;46.080;11.116;2023-08-24T09:22:50;9.88;;;7.15;;
68987;SDS011;56038;46.080;11.116;2023-08-24T09:27:57;7.20;;;6.43;;
68987;SDS011;56038;46.080;11.116;2023-08-24T09:33:04;10.63;;;7.97;;
68987;SDS011;56038;46.080;11.116;2023-08-24T09:38:16;12.80;;;7.18;;
68987;SDS011;56038;46.080;11.116;2023-08-24T09:43:19;7.85;;;6.60;;
68987;SDS011;56038;46.080;11.116;2023-08-24T09:48:23;8.45;;;7.65;;
68987;SDS011;56038;46.080;11.116;2023-08-24T09:53:25;8.00;;;6.53;;
68987;SDS011;56038;46.080;11.116;2023-08-24T09:58:30;9.60;;;6.55;;
68987;SDS011;56038;46.080;11.116;2023-08-24T10:03:33;9.18;;;7.13;;
68987;SDS011;56038;46.080;11.116;2023-08-24T10:08:42;7.43;;;6.20;;
68987;SDS011;56038;46.080;11.116;2023-08-24T10:13:50;6.70;;;5.95;;
68987;SDS011;56038;46.080;11.116;2023-08-24T10:18:58;7.70;;;6.22;;
68987;SDS011;56038;46.080;11.116;2023-08-24T10:24:01;8.27;;;5.93;;
68987;SDS011;56038;46.080;11.116;2023-08-24T10:29:04;6.60;;;5.80;;
68987;SDS011;56038;46.080;11.116;2023-08-24T10:34:09;7.35;;;5.93;;
68987;SDS011;56038;46.080;11.116;2023-08-24T10:39:11;7.75;;;6.03;;
68987;SDS011;56038;46.080;11.116;2023-08-24T10:44:19;6.35;;;5.75;;
68987;SDS011;56038;46.080;11.116;2023-08-24T10:49:23;7.30;;;6.53;;
68987;SDS011;56038;46.080;11.116;2023-08-24T10:54:31;6.78;;;6.03;;
68987;SDS011;56038;46.080;11.116;2023-08-24T10:59:34;5.60;;;5.10;;
68987;SDS011;56038;46.080;11.116;2023-08-24T11:04:40;7.25;;;6.07;;
68987;SDS011;56038;46.080;11.116;2023-08-24T11:09:45;7.50;;;6.55;;
68987;SDS011;56038;46.080;11.116;2023-08-24T11:14:48;7.65;;;6.00;;
68987;SDS011;56038;46.080;11.116;2023-08-24T11:19:56;7.60;;;6.22;;
68987;SDS011;56038;46.080;11.116;2023-08-24T11:24:58;5.95;;;5.35;;
68987;SDS011;56038;46.080;11.116;2023-08-24T11:30:00;8.27;;;6.35;;
68987;SDS011;56038;46.080;11.116;2023-08-24T11:35:10;6.47;;;5.68;;
68987;SDS011;56038;46.080;11.116;2023-08-24T11:40:16;7.07;;;6.38;;
68987;SDS011;56038;46.080;11.116;2023-08-24T11:45:19;7.10;;;6.03;;
68987;SDS011;56038;46.080;11.116;2023-08-24T11:50:22;6.90;;;6.30;;
68987;SDS011;56038;46.080;11.116;2023-08-24T11:55:24;8.55;;;6.15;;
68987;SDS011;56038;46.080;11.116;2023-08-24T12:00:26;6.87;;;5.83;;
68987;SDS011;56038;46.080;11.116;2023-08-24T12:05:38;8.05;;;7.25;;
68987;SDS011;56038;46.080;11.116;2023-08-24T12:10:45;8.10;;;7.30;;
68987;SDS011;56038;46.080;11.116;2023-08-24T12:15:47;8.30;;;7.50;;
68987;SDS011;56038;46.080;11.116;2023-08-24T12:20:52;8.93;;;8.05;;
68987;SDS011;56038;46.080;11.116;2023-08-24T12:25:54;8.18;;;6.97;;
68987;SDS011;56038;46.080;11.116;2023-08-24T12:30:56;7.20;;;6.60;;
68987;SDS011;56038;46.080;11.116;2023-08-24T12:36:02;8.35;;;6.78;;
68987;SDS011;56038;46.080;11.116;2023-08-24T12:41:04;8.50;;;7.03;;
68987;SDS011;56038;46.080;11.116;2023-08-24T12:46:06;8.48;;;7.03;;
68987;SDS011;56038;46.080;11.116;2023-08-24T12:51:09;7.53;;;6.83;;
68987;SDS011;56038;46.080;11.116;2023-08-24T12:56:10;8.80;;;8.00;;
68987;SDS011;56038;46.080;11.116;2023-08-24T13:01:12;7.73;;;6.63;;
68987;SDS011;56038;46.080;11.116;2023-08-24T13:06:15;8.70;;;7.68;;
68987;SDS011;56038;46.080;11.116;2023-08-24T13:11:17;7.07;;;6.30;;
68987;SDS011;56038;46.080;11.116;2023-08-24T13:16:18;7.10;;;6.50;;
68987;SDS011;56038;46.080;11.116;2023-08-24T13:21:22;6.70;;;6.03;;
68987;SDS011;56038;46.080;11.116;2023-08-24T13:26:23;6.90;;;6.20;;
68987;SDS011;56038;46.080;11.116;2023-08-24T13:31:25;6.45;;;5.63;;
68987;SDS011;56038;46.080;11.116;2023-08-24T13:36:31;6.35;;;5.82;;
68987;SDS011;56038;46.080;11.116;2023-08-24T13:41:33;6.47;;;5.88;;
68987;SDS011;56038;46.080;11.116;2023-08-24T13:46:34;5.32;;;4.82;;
68987;SDS011;56038;46.080;11.116;2023-08-24T13:51:38;6.10;;;5.07;;
68987;SDS011;56038;46.080;11.116;2023-08-24T13:56:39;5.88;;;5.05;;
68987;SDS011;56038;46.080;11.116;2023-08-24T14:01:41;7.57;;;5.15;;
68987;SDS011;56038;46.080;11.116;2023-08-24T14:11:48;5.65;;;5.00;;
68987;SDS011;56038;46.080;11.116;2023-08-24T14:16:53;5.25;;;4.80;;
68987;SDS011;56038;46.080;11.116;2023-08-24T14:21:57;5.28;;;4.78;;
68987;SDS011;56038;46.080;11.116;2023-08-24T14:26:59;5.55;;;5.05;;
68987;SDS011;56038;46.080;11.116;2023-08-24T14:32:01;6.00;;;4.87;;
68987;SDS011;56038;46.080;11.116;2023-08-24T14:37:04;4.33;;;3.93;;
68987;SDS011;56038;46.080;11.116;2023-08-24T14:42:05;7.97;;;5.07;;
68987;SDS011;56038;46.080;11.116;2023-08-24T14:47:07;6.43;;;5.28;;
68987;SDS011;56038;46.080;11.116;2023-08-24T14:52:10;5.90;;;4.87;;
68987;SDS011;56038;46.080;11.116;2023-08-24T14:57:12;5.70;;;5.13;;
68987;SDS011;56038;46.080;11.116;2023-08-24T15:02:14;5.97;;;4.93;;
68987;SDS011;56038;46.080;11.116;2023-08-24T15:07:18;6.40;;;5.45;;
68987;SDS011;56038;46.080;11.116;2023-08-24T15:12:20;7.13;;;5.18;;
68987;SDS011;56038;46.080;11.116;2023-08-24T15:17:22;6.00;;;5.40;;
68987;SDS011;56038;46.080;11.116;2023-08-24T15:22:25;7.37;;;4.80;;
68987;SDS011;56038;46.080;11.116;2023-08-24T15:27:29;8.68;;;5.28;;
68987;SDS011;56038;46.080;11.116;2023-08-24T15:32:30;5.37;;;4.77;;
68987;SDS011;56038;46.080;11.116;2023-08-24T15:37:33;7.30;;;5.00;;
68987;SDS011;56038;46.080;11.116;2023-08-24T15:42:35;5.55;;;5.05;;
68987;SDS011;56038;46.080;11.116;2023-08-24T15:47:37;6.53;;;5.60;;
68987;SDS011;56038;46.080;11.116;2023-08-24T15:52:40;7.75;;;5.18;;
68987;SDS011;56038;46.080;11.116;2023-08-24T15:57:42;6.63;;;5.32;;
68987;SDS011;56038;46.080;11.116;2023-08-24T16:02:43;6.60;;;5.72;;
68987;SDS011;56038;46.080;11.116;2023-08-24T16:07:46;6.03;;;5.43;;
68987;SDS011;56038;46.080;11.116;2023-08-24T16:12:48;6.53;;;5.40;;
68987;SDS011;56038;46.080;11.116;2023-08-24T16:17:50;6.70;;;5.35;;
68987;SDS011;56038;46.080;11.116;2023-08-24T16:22:53;5.65;;;5.00;;
68987;SDS011;56038;46.080;11.116;2023-08-24T16:27:55;6.00;;;5.40;;
68987;SDS011;56038;46.080;11.116;2023-08-24T16:32:57;5.47;;;4.97;;
68987;SDS011;56038;46.080;11.116;2023-08-24T16:38:00;9.60;;;4.57;;
68987;SDS011;56038;46.080;11.116;2023-08-24T16:43:01;6.55;;;5.03;;
68987;SDS011;56038;46.080;11.116;2023-08-24T16:48:04;5.50;;;4.97;;
68987;SDS011;56038;46.080;11.116;2023-08-24T16:53:07;5.43;;;4.20;;
68987;SDS011;56038;46.080;11.116;2023-08-24T17:03:10;6.18;;;4.35;;
68987;SDS011;56038;46.080;11.116;2023-08-24T17:08:13;4.85;;;4.35;;
68987;SDS011;56038;46.080;11.116;2023-08-24T17:13:15;5.15;;;4.65;;
68987;SDS011;56038;46.080;11.116;2023-08-24T17:18:17;5.72;;;4.50;;
68987;SDS011;56038;46.080;11.116;2023-08-24T17:23:20;6.03;;;4.60;;
68987;SDS011;56038;46.080;11.116;2023-08-24T17:28:22;5.18;;;4.55;;
68987;SDS011;56038;46.080;11.116;2023-08-24T17:33:24;7.85;;;5.35;;
68987;SDS011;56038;46.080;11.116;2023-08-24T17:38:27;5.63;;;4.90;;
68987;SDS011;56038;46.080;11.116;2023-08-24T17:43:29;4.95;;;3.88;;
68987;SDS011;56038;46.080;11.116;2023-08-24T17:53:35;4.60;;;4.20;;
68987;SDS011;56038;46.080;11.116;2023-08-24T18:03:39;6.93;;;5.20;;
68987;SDS011;56038;46.080;11.116;2023-08-24T18:08:42;5.60;;;5.10;;
68987;SDS011;56038;46.080;11.116;2023-08-24T18:13:43;6.03;;;4.75;;
68987;SDS011;56038;46.080;11.116;2023-08-24T18:18:47;5.30;;;4.80;;
68987;SDS011;56038;46.080;11.116;2023-08-24T18:23:50;5.50;;;4.32;;
68987;SDS011;56038;46.080;11.116;2023-08-24T18:28:51;5.60;;;5.10;;
68987;SDS011;56038;46.080;11.116;2023-08-24T18:33:53;6.88;;;5.35;;
68987;SDS011;56038;46.080;11.116;2023-08-24T18:38:56;5.88;;;5.28;;
68987;SDS011;56038;46.080;11.116;2023-08-24T18:43:58;8.23;;;5.38;;
68987;SDS011;56038;46.080;11.116;2023-08-24T18:49:00;6.40;;;5.75;;
68987;SDS011;56038;46.080;11.116;2023-08-24T18:54:04;6.30;;;5.13;;
68987;SDS011;56038;46.080;11.116;2023-08-24T18:59:06;7.13;;;5.15;;
68987;SDS011;56038;46.080;11.116;2023-08-24T19:04:08;6.82;;;5.38;;
68987;SDS011;56038;46.080;11.116;2023-08-24T19:09:11;6.13;;;5.13;;
68987;SDS011;56038;46.080;11.116;2023-08-24T19:19:14;9.10;;;5.72;;
68987;SDS011;56038;46.080;11.116;2023-08-24T19:24:17;8.30;;;5.78;;
68987;SDS011;56038;46.080;11.116;2023-08-24T19:29:19;6.95;;;5.47;;
68987;SDS011;56038;46.080;11.116;2023-08-24T19:34:21;9.05;;;5.80;;
68987;SDS011;56038;46.080;11.116;2023-08-24T19:39:24;7.03;;;6.25;;
68987;SDS011;56038;46.080;11.116;2023-08-24T19:44:25;8.48;;;6.55;;
68987;SDS011;56038;46.080;11.116;2023-08-24T19:49:27;9.63;;;6.60;;
68987;SDS011;56038;46.080;11.116;2023-08-24T19:54:30;9.15;;;6.20;;
68987;SDS011;56038;46.080;11.116;2023-08-24T19:59:32;7.85;;;5.63;;
68987;SDS011;56038;46.080;11.116;2023-08-24T20:04:33;8.88;;;5.68;;
68987;SDS011;56038;46.080;11.116;2023-08-24T20:09:37;6.03;;;5.43;;
68987;SDS011;56038;46.080;11.116;2023-08-24T20:14:38;7.07;;;5.63;;
68987;SDS011;56038;46.080;11.116;2023-08-24T20:19:41;8.10;;;6.15;;
68987;SDS011;56038;46.080;11.116;2023-08-24T20:24:44;6.35;;;5.35;;
68987;SDS011;56038;46.080;11.116;2023-08-24T20:29:46;5.93;;;5.25;;
68987;SDS011;56038;46.080;11.116;2023-08-24T20:34:47;7.80;;;6.13;;
68987;SDS011;56038;46.080;11.116;2023-08-24T20:39:50;6.45;;;5.47;;
68987;SDS011;56038;46.080;11.116;2023-08-24T20:44:52;6.90;;;5.60;;
68987;SDS011;56038;46.080;11.116;2023-08-24T20:49:54;7.05;;;5.55;;
68987;SDS011;56038;46.080;11.116;2023-08-24T20:54:57;8.50;;;7.03;;
68987;SDS011;56038;46.080;11.116;2023-08-24T20:59:59;10.00;;;5.80;;
68987;SDS011;56038;46.080;11.116;2023-08-24T21:05:01;6.18;;;5.40;;
68987;SDS011;56038;46.080;11.116;2023-08-24T21:10:05;7.73;;;5.83;;
68987;SDS011;56038;46.080;11.116;2023-08-24T21:15:08;8.98;;;6.70;;
68987;SDS011;56038;46.080;11.116;2023-08-24T21:20:09;8.13;;;6.65;;
68987;SDS011;56038;46.080;11.116;2023-08-24T21:25:13;9.15;;;6.18;;
68987;SDS011;56038;46.080;11.116;2023-08-24T21:30:15;7.47;;;4.70;;
68987;SDS011;56038;46.080;11.116;2023-08-24T21:35:16;5.85;;;5.07;;
68987;SDS011;56038;46.080;11.116;2023-08-24T21:40:19;9.63;;;6.10;;
68987;SDS011;56038;46.080;11.116;2023-08-24T21:45:23;10.25;;;6.10;;
68987;SDS011;56038;46.080;11.116;2023-08-24T21:50:25;8.15;;;6.07;;
68987;SDS011;56038;46.080;11.116;2023-08-24T21:55:34;8.87;;;6.07;;
68987;SDS011;56038;46.080;11.116;2023-08-24T22:00:37;11.05;;;6.65;;
68987;SDS011;56038;46.080;11.116;2023-08-24T22:05:39;9.90;;;5.90;;
68987;SDS011;56038;46.080;11.116;2023-08-24T22:10:45;8.57;;;6.50;;
68987;SDS011;56038;46.080;11.116;2023-08-24T22:15:48;8.87;;;5.87;;
68987;SDS011;56038;46.080;11.116;2023-08-24T22:20:49;11.73;;;6.50;;
68987;SDS011;56038;46.080;11.116;2023-08-24T22:25:52;9.02;;;6.22;;
68987;SDS011;56038;46.080;11.116;2023-08-24T22:30:54;9.40;;;5.60;;
68987;SDS011;56038;46.080;11.116;2023-08-24T22:35:56;8.85;;;6.10;;
68987;SDS011;56038;46.080;11.116;2023-08-24T22:40:59;10.32;;;6.05;;
68987;SDS011;56038;46.080;11.116;2023-08-24T22:46:04;6.13;;;4.78;;
68987;SDS011;56038;46.080;11.116;2023-08-24T22:51:05;8.55;;;6.20;;
68987;SDS011;56038;46.080;11.116;2023-08-24T22:56:09;9.38;;;6.28;;
68987;SDS011;56038;46.080;11.116;2023-08-24T23:01:15;10.23;;;5.82;;
68987;SDS011;56038;46.080;11.116;2023-08-24T23:06:18;9.57;;;5.90;;
68987;SDS011;56038;46.080;11.116;2023-08-24T23:11:22;11.20;;;7.15;;
68987;SDS011;56038;46.080;11.116;2023-08-24T23:16:24;10.43;;;6.07;;
68987;SDS011;56038;46.080;11.116;2023-08-24T23:21:26;8.57;;;6.25;;
68987;SDS011;56038;46.080;11.116;2023-08-24T23:26:29;9.55;;;6.63;;
68987;SDS011;56038;46.080;11.116;2023-08-24T23:31:31;10.70;;;7.27;;
68987;SDS011;56038;46.080;11.116;2023-08-24T23:36:33;8.82;;;6.30;;
68987;SDS011;56038;46.080;11.116;2023-08-24T23:41:36;9.27;;;6.43;;
68987;SDS011;56038;46.080;11.116;2023-08-24T23:46:38;9.00;;;6.27;;
68987;SDS011;56038;46.080;11.116;2023-08-24T23:51:40;11.95;;;7.20;;
68987;SDS011;56038;46.080;11.116;2023-08-24T23:56:43;9.95;;;6.55;;
